Time;durP1;ratioP1;P1;durP2;ratioP2;P2;SDS_P1;SDS_P2;PMS_P1;PMS_P2;Temp;Humidity;BMP_temperature;BMP_pressure;BME280_temperature;BME280_humidity;BME280_pressure;Samples;Min_cycle;Max_cycle;Signal;HPM_P1;HPM_P2
2021/11/25 00:01:42;;;;;;;19.73;2.95;;;;;;;6.16;58.69;99628.91;5008606;28;20128;-67
2021/11/25 00:04:08;;;;;;;13.27;2.20;;;;;;;6.43;57.69;99628.72;4998859;28;20041;-67
2021/11/25 00:06:33;;;;;;;18.08;2.15;;;;;;;6.10;58.47;99632.44;4997115;28;20034;-67
2021/11/25 00:09:00;;;;;;;11.75;1.73;;;;;;;6.51;57.93;99632.97;4989231;28;20046;-67
2021/11/25 00:11:26;;;;;;;13.45;1.85;;;;;;;6.55;57.99;99629.63;5006023;28;20943;-68
2021/11/25 00:13:51;;;;;;;9.43;2.00;;;;;;;6.32;58.30;99632.91;4997343;28;20037;-68
2021/11/25 00:16:17;;;;;;;10.82;1.65;;;;;;;6.37;58.38;99632.25;4977753;28;20026;-68
2021/11/25 00:18:43;;;;;;;16.95;1.95;;;;;;;6.52;57.92;99624.72;4996256;28;20053;-68
2021/11/25 00:21:10;;;;;;;19.58;1.73;;;;;;;6.33;58.42;99628.38;5006810;28;20038;-68
2021/11/25 00:23:37;;;;;;;11.38;1.80;;;;;;;6.32;58.87;99624.06;4991039;28;20036;-68
2021/11/25 00:26:03;;;;;;;12.55;1.83;;;;;;;6.27;58.23;99635.44;5007405;28;20037;-68
2021/11/25 00:28:32;;;;;;;16.58;2.08;;;;;;;6.26;58.55;99631.91;5008522;28;20506;-67
2021/11/25 00:30:59;;;;;;;17.33;2.42;;;;;;;6.56;57.90;99625.13;4984866;28;20033;-67
2021/11/25 00:33:24;;;;;;;10.77;1.70;;;;;;;6.18;58.78;99621.50;5004196;28;20476;-67
2021/11/25 00:35:50;;;;;;;9.02;1.60;;;;;;;6.27;58.41;99627.41;5004708;28;20038;-67
2021/11/25 00:38:15;;;;;;;13.23;2.03;;;;;;;6.55;57.82;99631.50;4987329;28;20136;-67
2021/11/25 00:40:41;;;;;;;14.15;1.73;;;;;;;6.21;58.54;99617.56;5009673;28;20038;-67
2021/11/25 00:43:06;;;;;;;13.73;2.20;;;;;;;6.37;57.78;99611.69;5002063;28;20022;-67
2021/11/25 00:45:32;;;;;;;16.33;1.92;;;;;;;6.55;57.70;99615.44;5001350;28;20061;-67
2021/11/25 00:47:58;;;;;;;14.10;2.00;;;;;;;6.44;57.77;99623.16;4994353;28;20040;-68
2021/11/25 00:50:23;;;;;;;9.75;1.70;;;;;;;6.40;57.74;99621.94;5005688;28;20124;-68
2021/11/25 00:52:49;;;;;;;8.23;1.40;;;;;;;6.16;57.74;99618.22;5012524;28;20120;-67
2021/11/25 00:55:15;;;;;;;12.70;1.70;;;;;;;5.91;58.39;99618.97;4994094;28;20120;-66
2021/11/25 00:57:41;;;;;;;12.20;1.50;;;;;;;6.17;58.07;99616.34;5011279;28;20093;-66
2021/11/25 01:00:10;;;;;;;14.00;1.58;;;;;;;6.39;57.10;99614.13;4998663;28;20049;-66
2021/11/25 01:02:36;;;;;;;16.25;1.98;;;;;;;6.32;57.27;99624.91;5008426;28;20061;-68
2021/11/25 01:05:02;;;;;;;13.95;1.63;;;;;;;6.43;56.91;99621.50;4995016;28;20080;-66
2021/11/25 01:07:28;;;;;;;7.20;1.40;;;;;;;6.38;57.50;99620.50;5004499;28;20033;-67
2021/11/25 01:09:53;;;;;;;11.07;1.58;;;;;;;6.45;57.36;99618.59;4994621;28;21760;-67
2021/11/25 01:12:20;;;;;;;8.35;1.55;;;;;;;6.39;57.46;99627.50;5009327;28;20030;-67
2021/11/25 01:14:45;;;;;;;11.35;1.50;;;;;;;6.06;58.36;99616.00;4999510;28;20042;-67
2021/11/25 01:17:11;;;;;;;19.92;1.77;;;;;;;6.17;58.49;99629.72;5006743;28;20040;-67
2021/11/25 01:19:37;;;;;;;14.82;1.70;;;;;;;6.08;58.80;99621.94;5011212;28;20022;-66
2021/11/25 01:22:04;;;;;;;9.82;1.70;;;;;;;6.41;57.74;99625.44;5008007;28;20092;-67
2021/11/25 01:24:30;;;;;;;12.30;1.70;;;;;;;6.27;58.11;99628.22;4988500;28;20022;-67
2021/11/25 01:26:56;;;;;;;14.25;1.90;;;;;;;6.30;58.09;99630.44;5011543;28;20030;-67
2021/11/25 01:29:23;;;;;;;13.27;2.05;;;;;;;6.18;58.22;99621.50;4993531;28;20046;-67
2021/11/25 01:31:49;;;;;;;7.57;1.48;;;;;;;5.86;58.87;99630.28;4991690;28;20112;-67
2021/11/25 01:34:15;;;;;;;13.10;1.70;;;;;;;6.15;58.46;99635.28;5010213;28;20491;-66
2021/11/25 01:36:41;;;;;;;18.30;1.83;;;;;;;6.10;58.50;99629.78;5011474;28;20044;-66
2021/11/25 01:39:08;;;;;;;10.82;1.75;;;;;;;5.79;58.94;99637.50;4981451;28;20066;-67
2021/11/25 01:41:33;;;;;;;11.55;1.52;;;;;;;6.04;58.78;99638.66;5004320;28;20076;-66
2021/11/25 01:43:59;;;;;;;13.10;2.10;;;;;;;6.22;58.09;99640.59;5001604;28;20034;-67
2021/11/25 01:46:27;;;;;;;11.57;1.95;;;;;;;6.12;58.63;99647.22;5006897;28;20036;-67
2021/11/25 01:48:53;;;;;;;9.05;1.73;;;;;;;5.90;59.21;99645.88;5011036;28;20033;-66
2021/11/25 01:51:22;;;;;;;8.63;2.00;;;;;;;6.28;58.03;99643.22;5002382;28;20399;-66
2021/11/25 01:53:48;;;;;;;8.88;1.35;;;;;;;6.07;58.83;99638.22;5018447;28;20389;-67
2021/11/25 01:56:16;;;;;;;12.20;1.90;;;;;;;6.09;59.07;99634.28;4984777;28;20530;-67
2021/11/25 01:58:42;;;;;;;13.13;2.38;;;;;;;6.06;58.61;99645.41;5013273;28;20372;-67
2021/11/25 02:01:11;;;;;;;8.57;1.42;;;;;;;5.95;59.26;99649.56;4992562;28;20037;-67
2021/11/25 02:03:38;;;;;;;8.45;2.85;;;;;;;5.87;59.54;99649.81;4987918;28;20693;-66
2021/11/25 02:06:05;;;;;;;9.45;1.67;;;;;;;5.81;59.95;99659.50;5012100;28;20507;-66
2021/11/25 02:08:31;;;;;;;9.70;1.88;;;;;;;5.67;60.58;99658.75;5001945;28;20041;-66
2021/11/25 02:10:58;;;;;;;14.55;2.10;;;;;;;5.65;60.53;99651.97;4993149;28;20030;-66
2021/11/25 02:13:25;;;;;;;7.70;1.48;;;;;;;5.79;59.79;99648.19;5000556;28;20066;-66
2021/11/25 02:15:52;;;;;;;11.90;1.65;;;;;;;5.69;60.18;99638.00;5002597;28;20506;-66
2021/11/25 02:18:22;;;;;;;13.75;2.22;;;;;;;5.51;61.22;99648.53;5010283;28;20034;-66
2021/11/25 02:20:55;;;;;;;17.08;1.63;;;;;;;5.80;59.59;99638.34;5002324;28;20365;-66
2021/11/25 02:23:22;;;;;;;15.10;2.17;;;;;;;5.93;59.34;99635.59;5004762;28;20037;-66
2021/11/25 02:25:49;;;;;;;16.35;1.83;;;;;;;5.63;59.93;99635.34;5015735;28;20495;-66
2021/11/25 02:28:21;;;;;;;9.82;1.40;;;;;;;5.70;59.88;99633.44;5005956;28;20102;-66
2021/11/25 02:30:48;;;;;;;9.15;1.40;;;;;;;5.75;60.08;99628.28;5006531;28;20036;-68
2021/11/25 02:33:15;;;;;;;12.32;2.08;;;;;;;5.76;60.10;99629.13;5007978;28;20044;-67
2021/11/25 02:35:41;;;;;;;9.13;1.80;;;;;;;5.67;59.82;99629.38;4990180;28;20030;-66
2021/11/25 02:38:09;;;;;;;11.25;1.48;;;;;;;5.49;60.18;99627.38;5005537;28;20056;-66
2021/11/25 02:40:39;;;;;;;8.45;1.25;;;;;;;5.44;60.82;99632.53;5002554;28;20027;-68
2021/11/25 02:43:11;;;;;;;12.68;1.70;;;;;;;5.28;60.62;99631.13;4988417;28;20065;-67
2021/11/25 02:45:47;;;;;;;8.73;1.50;;;;;;;5.07;62.10;99629.56;5006651;28;20041;-67
2021/11/25 02:48:13;;;;;;;9.88;1.83;;;;;;;4.93;62.77;99631.44;4997746;28;20630;-67
2021/11/25 02:50:38;;;;;;;8.07;1.40;;;;;;;4.86;61.63;99635.97;5003419;28;20519;-67
2021/11/25 02:53:04;;;;;;;5.82;1.38;;;;;;;4.71;62.62;99638.88;4990617;28;20042;-67
2021/11/25 02:55:30;;;;;;;10.88;1.40;;;;;;;4.57;63.25;99638.88;5003837;28;20037;-67
2021/11/25 02:57:55;;;;;;;7.18;1.50;;;;;;;4.67;62.38;99635.78;5003654;28;20041;-67
2021/11/25 03:00:20;;;;;;;6.93;1.52;;;;;;;4.56;63.68;99637.22;5010353;28;20030;-67
2021/11/25 03:02:54;;;;;;;17.88;1.67;;;;;;;4.47;64.15;99641.94;5007251;28;20034;-67
2021/11/25 03:05:19;;;;;;;9.00;1.40;;;;;;;4.49;63.49;99642.56;4996145;28;20369;-67
2021/11/25 03:07:45;;;;;;;10.65;1.95;;;;;;;4.47;63.27;99643.78;4975462;28;20045;-67
2021/11/25 03:10:10;;;;;;;11.50;1.50;;;;;;;4.51;63.42;99640.50;5006466;28;20038;-67
2021/11/25 03:12:36;;;;;;;7.15;1.48;;;;;;;4.65;62.49;99635.16;4993373;28;20881;-66
2021/11/25 03:15:05;;;;;;;4.80;1.45;;;;;;;4.85;61.71;99635.16;5008077;28;20679;-66
2021/11/25 03:17:30;;;;;;;10.65;2.00;;;;;;;4.88;61.68;99634.75;4997843;28;20036;-67
2021/11/25 03:19:56;;;;;;;5.43;1.08;;;;;;;5.02;60.72;99642.72;5000233;28;20468;-66
2021/11/25 03:22:22;;;;;;;6.03;1.20;;;;;;;5.01;61.21;99647.22;5015217;28;20076;-66
2021/11/25 03:24:47;;;;;;;12.30;1.40;;;;;;;5.14;60.51;99638.38;4991357;28;20034;-66
2021/11/25 03:27:14;;;;;;;10.55;1.10;;;;;;;5.23;60.30;99642.47;5010969;28;20171;-66
2021/11/25 03:29:39;;;;;;;6.53;1.20;;;;;;;5.00;60.54;99637.56;4987303;28;20038;-67
2021/11/25 03:32:05;;;;;;;9.95;1.10;;;;;;;5.04;60.37;99641.47;5012966;28;20033;-66
2021/11/25 03:34:31;;;;;;;6.35;1.42;;;;;;;5.36;59.71;99640.78;4974727;28;20033;-67
2021/11/25 03:36:56;;;;;;;7.63;1.42;;;;;;;5.12;59.96;99641.25;5009528;28;20411;-67
2021/11/25 03:39:22;;;;;;;7.30;1.17;;;;;;;5.25;59.79;99644.91;4985427;28;20048;-67
2021/11/25 03:41:48;;;;;;;7.22;1.65;;;;;;;5.24;59.66;99648.59;5011110;28;20056;-67
2021/11/25 03:44:13;;;;;;;10.73;0.90;;;;;;;5.26;59.73;99651.88;4995652;28;20406;-67
2021/11/25 03:46:39;;;;;;;8.32;1.65;;;;;;;5.33;59.25;99660.72;4995503;28;20468;-67
2021/11/25 03:49:05;;;;;;;8.60;1.23;;;;;;;5.13;59.84;99652.75;4985975;28;20033;-67
2021/11/25 03:51:31;;;;;;;5.90;1.23;;;;;;;5.11;59.42;99658.28;5004866;28;20042;-67
2021/11/25 03:53:56;;;;;;;5.93;1.00;;;;;;;5.15;59.75;99661.38;5006777;28;20438;-67
2021/11/25 03:56:22;;;;;;;6.55;1.08;;;;;;;5.26;58.84;99652.72;4996632;28;20042;-67
2021/11/25 03:58:47;;;;;;;8.50;1.30;;;;;;;5.46;58.36;99661.72;4980974;28;20118;-67
2021/11/25 04:01:13;;;;;;;6.35;0.90;;;;;;;5.13;59.72;99650.09;5007914;28;20061;-67
2021/11/25 04:03:39;;;;;;;8.00;1.30;;;;;;;5.37;58.50;99650.44;4992643;28;20083;-67
2021/11/25 04:06:05;;;;;;;12.05;1.45;;;;;;;5.39;58.30;99653.72;5004797;28;20426;-67
2021/11/25 04:08:31;;;;;;;6.88;1.20;;;;;;;5.22;59.20;99653.34;4988923;28;20038;-67
2021/11/25 04:10:57;;;;;;;9.55;1.17;;;;;;;5.37;59.13;99653.94;4999285;28;20507;-67
2021/11/25 04:13:22;;;;;;;6.97;1.00;;;;;;;5.39;58.75;99656.38;4993179;28;20137;-67
2021/11/25 04:15:48;;;;;;;7.90;1.23;;;;;;;5.28;59.63;99664.00;5006870;28;20116;-67
2021/11/25 04:18:14;;;;;;;9.75;1.10;;;;;;;5.18;58.79;99657.47;4987386;28;20042;-67
2021/11/25 04:20:40;;;;;;;11.18;1.17;;;;;;;5.34;59.06;99656.19;5005660;28;20484;-67
2021/11/25 04:23:06;;;;;;;11.25;1.38;;;;;;;5.37;58.78;99655.78;4995643;28;20471;-67
2021/11/25 04:25:34;;;;;;;10.40;1.17;;;;;;;5.23;59.38;99655.81;4999146;28;20034;-67
2021/11/25 04:28:01;;;;;;;5.65;1.30;;;;;;;5.03;59.32;99642.50;4990991;28;20088;-67
2021/11/25 04:30:47;;;;;;;10.13;1.40;;;;;;;5.05;59.14;99655.66;5006715;28;20045;-67
2021/11/25 04:35:57;;;;;;;6.45;1.20;;;;;;;5.42;58.29;99634.59;4990959;28;20118;-67
2021/11/25 04:38:23;;;;;;;4.80;1.10;;;;;;;5.44;58.50;99634.41;4996448;28;20148;-67
2021/11/25 04:40:53;;;;;;;13.23;1.30;;;;;;;5.32;58.33;99628.88;5000986;28;20046;-67
2021/11/25 04:43:21;;;;;;;6.60;1.00;;;;;;;5.42;57.60;99632.75;5002024;28;20373;-67
2021/11/25 04:45:48;;;;;;;6.53;1.40;;;;;;;5.15;59.16;99628.50;4992896;28;20096;-67
2021/11/25 04:48:16;;;;;;;6.43;1.10;;;;;;;5.35;58.01;99631.97;5001041;28;20136;-66
2021/11/25 04:50:42;;;;;;;6.47;0.98;;;;;;;5.21;58.35;99633.00;4981671;28;20030;-67
2021/11/25 04:53:13;;;;;;;9.32;1.27;;;;;;;5.25;58.34;99644.91;5007198;28;20191;-67
2021/11/25 04:55:39;;;;;;;5.55;1.30;;;;;;;5.47;57.71;99640.13;5002990;28;20476;-67
2021/11/25 04:58:05;;;;;;;11.25;1.38;;;;;;;5.20;58.57;99655.41;4988243;28;20038;-68
2021/11/25 05:00:31;;;;;;;7.03;1.33;;;;;;;5.46;57.25;99665.19;5008422;28;20042;-67
2021/11/25 05:02:57;;;;;;;5.07;1.10;;;;;;;5.27;58.34;99670.38;4987843;28;20036;-67
2021/11/25 05:05:22;;;;;;;6.63;1.08;;;;;;;5.34;58.41;99669.53;5008610;28;20038;-67
2021/11/25 05:07:49;;;;;;;10.43;2.13;;;;;;;5.20;58.73;99668.75;5002959;28;20033;-67
2021/11/25 05:10:15;;;;;;;9.90;1.25;;;;;;;5.31;58.71;99675.31;4988985;28;20049;-67
2021/11/25 05:12:40;;;;;;;4.32;0.80;;;;;;;5.27;58.60;99681.06;4996048;28;22212;-67
2021/11/25 05:15:09;;;;;;;6.47;1.00;;;;;;;5.22;58.57;99667.53;4983573;28;20042;-68
2021/11/25 05:17:35;;;;;;;10.68;1.42;;;;;;;5.07;58.90;99686.44;5002795;28;20109;-68
2021/11/25 05:20:00;;;;;;;8.60;1.20;;;;;;;5.14;58.77;99667.75;5002879;28;20437;-68
2021/11/25 05:22:26;;;;;;;9.43;1.10;;;;;;;4.98;59.44;99671.66;4996740;28;20459;-68
2021/11/25 05:24:51;;;;;;;9.25;1.55;;;;;;;5.08;59.25;99682.72;4989213;28;20331;-66
2021/11/25 05:27:17;;;;;;;8.57;1.10;;;;;;;5.23;58.03;99671.00;5000534;28;20042;-67
2021/11/25 05:29:43;;;;;;;7.03;1.17;;;;;;;5.11;58.69;99679.66;4994672;28;20512;-68
2021/11/25 05:32:10;;;;;;;12.30;1.05;;;;;;;4.91;59.56;99687.69;5004757;28;20071;-68
2021/11/25 05:34:36;;;;;;;5.43;1.10;;;;;;;5.30;58.06;99690.53;4989551;28;20333;-68
2021/11/25 05:37:02;;;;;;;9.50;1.15;;;;;;;5.30;58.31;99685.19;5008917;28;20045;-68
2021/11/25 05:39:29;;;;;;;15.30;1.67;;;;;;;5.25;58.36;99677.78;4998865;28;20049;-68
2021/11/25 05:41:54;;;;;;;7.78;1.02;;;;;;;5.41;57.75;99692.56;4988175;28;20423;-68
2021/11/25 05:44:20;;;;;;;9.82;1.30;;;;;;;5.38;58.15;99689.47;4991828;28;20068;-68
2021/11/25 05:46:45;;;;;;;8.50;1.35;;;;;;;5.11;59.07;99686.84;5004020;28;20534;-68
2021/11/25 05:49:11;;;;;;;5.63;1.10;;;;;;;5.02;59.40;99699.59;4997087;28;20044;-68
2021/11/25 05:51:37;;;;;;;8.52;0.95;;;;;;;5.28;58.70;99692.56;5012500;28;20060;-68
2021/11/25 05:54:02;;;;;;;9.35;1.15;;;;;;;5.18;58.88;99703.69;4992010;28;20096;-68
2021/11/25 05:56:28;;;;;;;13.18;1.33;;;;;;;5.22;58.90;99696.91;5009015;28;20045;-68
2021/11/25 05:58:55;;;;;;;9.98;1.42;;;;;;;5.06;59.49;99711.50;4999689;28;20546;-68
2021/11/25 06:01:23;;;;;;;12.13;1.35;;;;;;;5.28;58.88;99706.75;5008280;28;20142;-68
2021/11/25 06:03:53;;;;;;;8.52;1.15;;;;;;;5.04;59.08;99702.88;4980610;28;20038;-67
2021/11/25 06:06:18;;;;;;;9.65;1.33;;;;;;;5.23;58.88;99713.72;5008946;28;20060;-67
2021/11/25 06:08:45;;;;;;;14.00;1.30;;;;;;;5.27;58.41;99718.47;4987450;28;20084;-67
2021/11/25 06:11:10;;;;;;;8.90;1.20;;;;;;;5.32;58.38;99706.31;5011948;28;20034;-67
2021/11/25 06:13:36;;;;;;;9.27;1.30;;;;;;;5.31;58.50;99710.03;4999287;28;20069;-67
2021/11/25 06:16:02;;;;;;;8.02;1.25;;;;;;;5.21;59.04;99713.94;5012006;28;20049;-67
2021/11/25 06:18:27;;;;;;;9.70;1.40;;;;;;;5.03;59.15;99714.56;4992276;28;20034;-67
2021/11/25 06:20:53;;;;;;;9.35;1.05;;;;;;;4.84;59.20;99716.25;5013308;28;20052;-67
2021/11/25 06:23:20;;;;;;;9.68;2.10;;;;;;;4.91;59.44;99721.56;4983207;28;20034;-67
2021/11/25 06:25:46;;;;;;;6.28;1.05;;;;;;;4.86;59.46;99718.69;5004574;28;20096;-67
2021/11/25 06:28:12;;;;;;;11.85;1.35;;;;;;;5.01;59.05;99721.97;5003183;28;20824;-67
2021/11/25 06:30:38;;;;;;;6.60;1.00;;;;;;;5.20;58.70;99730.16;5004488;28;20063;-67
2021/11/25 06:33:04;;;;;;;8.02;1.25;;;;;;;5.22;58.34;99726.28;5000450;28;20083;-67
2021/11/25 06:35:30;;;;;;;10.38;1.13;;;;;;;5.18;58.30;99725.03;5011525;28;20033;-68
2021/11/25 06:37:56;;;;;;;8.25;1.60;;;;;;;5.14;58.65;99726.50;4988103;28;20460;-68
2021/11/25 06:40:25;;;;;;;9.80;1.08;;;;;;;5.12;58.73;99729.34;4991177;28;20049;-67
2021/11/25 06:42:55;;;;;;;12.65;1.50;;;;;;;4.82;58.92;99729.78;5011202;28;20034;-66
2021/11/25 06:45:21;;;;;;;8.18;1.52;;;;;;;5.03;59.19;99732.44;4988550;28;20079;-66
2021/11/25 06:47:48;;;;;;;12.98;1.40;;;;;;;5.15;58.55;99727.28;4995825;28;20037;-67
2021/11/25 06:50:18;;;;;;;6.25;1.42;;;;;;;4.78;59.83;99727.72;4998841;28;20498;-66
2021/11/25 06:52:43;;;;;;;8.90;1.45;;;;;;;4.83;59.48;99731.41;5011009;28;20034;-66
2021/11/25 06:55:10;;;;;;;8.82;1.08;;;;;;;5.07;58.85;99733.69;4980986;28;20044;-67
2021/11/25 06:57:37;;;;;;;8.82;1.50;;;;;;;4.99;59.21;99734.69;4999182;28;20034;-67
2021/11/25 07:00:05;;;;;;;8.88;1.20;;;;;;;5.35;58.33;99749.47;5004972;28;20065;-67
2021/11/25 07:02:31;;;;;;;8.27;1.50;;;;;;;5.12;58.86;99757.91;5009846;28;20034;-67
2021/11/25 07:04:57;;;;;;;6.60;1.40;;;;;;;5.04;58.76;99756.25;5004850;28;20096;-67
2021/11/25 07:07:22;;;;;;;9.57;1.27;;;;;;;4.95;58.74;99763.66;5008917;28;20058;-67
2021/11/25 07:09:48;;;;;;;11.30;1.40;;;;;;;5.03;58.99;99767.16;4997361;28;20033;-67
2021/11/25 07:12:14;;;;;;;12.63;1.52;;;;;;;4.95;59.14;99773.50;4993104;28;20056;-67
2021/11/25 07:14:40;;;;;;;7.45;1.10;;;;;;;5.10;58.37;99774.13;4993712;28;20183;-67
2021/11/25 07:17:05;;;;;;;10.90;1.35;;;;;;;4.82;59.68;99782.34;4995596;28;20081;-67
2021/11/25 07:19:32;;;;;;;7.75;1.15;;;;;;;4.88;59.24;99786.84;5004290;28;20639;-67
2021/11/25 07:21:57;;;;;;;12.05;1.27;;;;;;;4.91;58.58;99785.63;4997314;28;20033;-67
2021/11/25 07:24:25;;;;;;;6.38;1.50;;;;;;;5.03;58.67;99785.84;4998278;28;20026;-66
2021/11/25 07:26:51;;;;;;;8.07;1.00;;;;;;;4.71;59.62;99791.75;4998549;28;20057;-66
2021/11/25 07:29:17;;;;;;;7.97;1.30;;;;;;;5.06;59.20;99802.25;4999891;28;20594;-67
2021/11/25 07:31:46;;;;;;;11.82;1.65;;;;;;;4.93;59.35;99787.06;5005102;28;20685;-67
2021/11/25 07:34:13;;;;;;;7.97;1.30;;;;;;;4.92;59.08;99796.09;5000683;28;20547;-65
2021/11/25 07:36:38;;;;;;;8.38;1.30;;;;;;;5.18;58.54;99798.97;5005977;28;20472;-66
2021/11/25 07:39:04;;;;;;;12.02;1.30;;;;;;;4.86;59.49;99806.75;5000802;28;20503;-66
2021/11/25 07:41:31;;;;;;;7.80;1.05;;;;;;;5.20;58.42;99800.44;4985139;28;20037;-66
2021/11/25 07:43:58;;;;;;;12.13;1.65;;;;;;;4.82;59.61;99788.47;4998297;28;20037;-69
2021/11/25 07:46:24;;;;;;;8.88;1.23;;;;;;;5.02;58.39;99786.88;4984369;28;20038;-68
2021/11/25 07:48:49;;;;;;;8.35;1.27;;;;;;;5.00;59.08;99788.91;4993605;28;20038;-67
2021/11/25 07:51:16;;;;;;;15.43;1.45;;;;;;;5.20;57.99;99787.06;5003460;28;21340;-68
2021/11/25 07:53:42;;;;;;;8.02;1.33;;;;;;;5.18;58.51;99788.28;5002219;28;20124;-68
2021/11/25 07:56:11;;;;;;;8.80;1.27;;;;;;;5.35;57.78;99788.72;4992086;28;20034;-68
2021/11/25 07:58:36;;;;;;;10.88;1.42;;;;;;;5.02;58.38;99792.22;4994718;28;20033;-68
2021/11/25 08:01:02;;;;;;;12.35;1.98;;;;;;;5.31;58.91;99796.31;4985680;28;20372;-68
2021/11/25 08:03:27;;;;;;;9.73;1.20;;;;;;;5.18;57.30;99799.81;4987662;28;20038;-68
2021/11/25 08:05:53;;;;;;;12.30;1.70;;;;;;;5.31;56.99;99798.16;4996407;28;20052;-68
2021/11/25 08:08:19;;;;;;;8.82;1.48;;;;;;;5.30;57.56;99791.19;4996991;28;20118;-69
2021/11/25 08:10:45;;;;;;;12.10;1.85;;;;;;;4.97;58.23;99790.97;4968536;28;20037;-68
2021/11/25 08:13:10;;;;;;;12.18;1.50;;;;;;;5.24;57.75;99782.97;5003498;28;20037;-68
2021/11/25 08:15:36;;;;;;;9.60;1.10;;;;;;;5.28;57.37;99791.38;4996895;28;20073;-68
2021/11/25 08:18:02;;;;;;;8.50;1.88;;;;;;;5.13;57.71;99802.28;4998802;28;20042;-68
2021/11/25 08:20:28;;;;;;;8.30;2.22;;;;;;;5.24;57.40;99804.31;5002972;28;20065;-67
2021/11/25 08:22:53;;;;;;;12.23;2.28;;;;;;;5.37;57.15;99802.69;5004615;28;20415;-67
2021/11/25 08:25:21;;;;;;;12.77;1.90;;;;;;;5.15;57.54;99810.91;4996374;28;20057;-67
2021/11/25 08:27:47;;;;;;;12.07;1.83;;;;;;;5.31;57.51;99815.03;4995839;28;20037;-67
2021/11/25 08:30:14;;;;;;;11.75;1.65;;;;;;;5.28;57.21;99805.56;4996596;28;20045;-69
2021/11/25 08:32:42;;;;;;;11.13;2.00;;;;;;;5.53;56.91;99809.44;4989169;28;20581;-68
2021/11/25 08:35:08;;;;;;;4.50;1.08;;;;;;;5.18;57.39;99817.66;4999110;28;20038;-68
2021/11/25 08:37:35;;;;;;;10.70;1.67;;;;;;;5.37;57.38;99814.19;5004160;28;20088;-68
2021/11/25 08:40:01;;;;;;;5.18;1.10;;;;;;;5.40;57.34;99812.94;5004837;28;20030;-68
2021/11/25 08:42:27;;;;;;;10.77;2.17;;;;;;;5.46;57.14;99812.13;5001702;28;20044;-68
2021/11/25 08:44:52;;;;;;;9.23;1.90;;;;;;;5.35;57.62;99813.59;5006243;28;20072;-68
2021/11/25 08:47:19;;;;;;;9.65;1.58;;;;;;;5.38;57.36;99817.66;5003677;28;20038;-69
2021/11/25 08:49:45;;;;;;;6.55;1.23;;;;;;;5.32;57.67;99818.50;5004236;28;20026;-68
2021/11/25 08:52:10;;;;;;;10.48;1.70;;;;;;;5.39;57.82;99808.63;5004930;28;20478;-68
2021/11/25 08:54:38;;;;;;;10.02;1.65;;;;;;;5.40;57.07;99807.59;5003580;28;20084;-68
2021/11/25 08:57:04;;;;;;;8.00;1.45;;;;;;;5.18;57.79;99809.66;5006591;28;20045;-68
2021/11/25 08:59:29;;;;;;;13.82;1.80;;;;;;;5.83;56.60;99825.81;5007285;28;20034;-68
2021/11/25 09:01:55;;;;;;;8.77;1.30;;;;;;;5.49;56.50;99817.03;5000921;28;20064;-68
2021/11/25 09:04:20;;;;;;;12.13;2.00;;;;;;;5.64;56.72;99822.19;5004598;28;20034;-68
2021/11/25 09:06:46;;;;;;;12.40;2.35;;;;;;;5.84;55.78;99811.44;5006105;28;20535;-68
2021/11/25 09:09:11;;;;;;;11.93;1.65;;;;;;;5.92;56.20;99812.22;4993275;28;20042;-67
2021/11/25 09:11:38;;;;;;;13.05;1.70;;;;;;;5.73;56.27;99822.75;4991063;28;20173;-68
2021/11/25 09:14:03;;;;;;;15.68;2.05;;;;;;;5.98;55.94;99814.06;5000695;28;20046;-67
2021/11/25 09:16:29;;;;;;;9.20;2.05;;;;;;;5.70;56.41;99817.84;5002970;28;20034;-67
2021/11/25 09:18:55;;;;;;;15.05;1.70;;;;;;;5.80;56.51;99822.75;4985074;28;20041;-67
2021/11/25 09:21:21;;;;;;;13.82;2.10;;;;;;;6.06;55.83;99821.88;4994847;28;20036;-67
2021/11/25 09:23:48;;;;;;;9.07;1.42;;;;;;;6.17;55.61;99820.41;5004223;28;20120;-67
2021/11/25 09:26:16;;;;;;;14.32;1.98;;;;;;;6.02;55.63;99825.22;5008385;28;20030;-67
2021/11/25 09:28:44;;;;;;;11.63;1.77;;;;;;;6.46;54.38;99818.25;5006519;28;20299;-68
2021/11/25 09:31:14;;;;;;;15.75;2.13;;;;;;;6.08;55.32;99833.19;4999437;28;20603;-67
2021/11/25 09:33:41;;;;;;;13.15;2.00;;;;;;;6.15;55.41;99839.34;4990588;28;20049;-67
2021/11/25 09:36:07;;;;;;;7.63;1.38;;;;;;;6.08;55.95;99830.50;4989607;28;20046;-67
2021/11/25 09:38:33;;;;;;;7.55;1.63;;;;;;;6.00;55.71;99838.75;4987918;28;20052;-68
2021/11/25 09:41:01;;;;;;;12.85;1.90;;;;;;;6.34;55.18;99844.84;5005575;28;20040;-67
2021/11/25 09:43:29;;;;;;;8.07;1.67;;;;;;;6.52;54.42;99841.47;5004748;28;20151;-67
2021/11/25 09:45:55;;;;;;;10.93;1.55;;;;;;;6.39;54.49;99847.72;5002795;28;20037;-67
2021/11/25 09:48:23;;;;;;;7.07;1.48;;;;;;;6.48;54.42;99850.94;5005321;28;20496;-67
2021/11/25 09:50:51;;;;;;;13.30;1.77;;;;;;;6.41;54.76;99851.00;5006287;28;20049;-67
2021/11/25 09:53:19;;;;;;;7.95;1.52;;;;;;;6.32;55.01;99851.44;4981001;28;20602;-67
2021/11/25 09:55:48;;;;;;;39.28;3.13;;;;;;;6.72;54.30;99857.44;5008480;28;20468;-67
2021/11/25 09:58:16;;;;;;;10.32;2.00;;;;;;;6.65;54.56;99855.81;5007620;28;20034;-68
2021/11/25 10:00:50;;;;;;;12.07;1.40;;;;;;;6.41;54.48;99851.00;4998954;28;20041;-68
2021/11/25 10:03:18;;;;;;;10.70;1.55;;;;;;;6.64;54.31;99854.19;4997916;28;20121;-68
2021/11/25 10:05:47;;;;;;;11.07;1.63;;;;;;;6.73;53.98;99871.63;5000431;28;20501;-68
2021/11/25 10:08:22;;;;;;;14.80;1.98;;;;;;;6.69;53.95;99863.22;5006984;28;20077;-67
2021/11/25 10:10:57;;;;;;;13.13;1.92;;;;;;;6.85;53.94;99861.06;4999896;28;20031;-68
2021/11/25 10:13:26;;;;;;;9.98;1.83;;;;;;;6.68;53.89;99855.38;4998987;28;20058;-69
2021/11/25 10:15:57;;;;;;;9.45;1.85;;;;;;;6.68;53.63;99861.56;5006482;28;20034;-69
2021/11/25 10:18:22;;;;;;;9.43;1.67;;;;;;;6.97;53.63;99859.34;5004151;28;20519;-69
2021/11/25 10:20:51;;;;;;;10.65;1.80;;;;;;;7.18;53.06;99852.00;4986808;28;20116;-68
2021/11/25 10:23:26;;;;;;;14.40;1.85;;;;;;;6.84;53.29;99854.06;5003933;28;20092;-67
2021/11/25 10:26:01;;;;;;;18.83;1.48;;;;;;;6.82;53.53;99861.50;5001435;28;20030;-69
2021/11/25 10:28:48;;;;;;;12.95;2.13;;;;;;;7.05;53.77;99877.00;4989133;28;20060;-68
2021/11/25 10:31:20;;;;;;;13.45;2.20;;;;;;;6.82;53.96;99870.34;4993860;28;20476;-68
2021/11/25 10:33:52;;;;;;;12.38;2.15;;;;;;;6.62;54.13;99866.94;5005262;28;20052;-67
2021/11/25 10:41:51;;;;;;;11.40;2.33;;;;;;;7.26;53.09;99883.06;5004901;28;20689;-68
2021/11/25 10:44:23;;;;;;;11.07;2.25;;;;;;;7.34;53.50;99872.09;5003285;28;20057;-67
2021/11/25 10:46:55;;;;;;;16.30;2.67;;;;;;;7.29;52.71;99878.09;4996662;28;20483;-67
2021/11/25 10:49:45;;;;;;;17.17;2.40;;;;;;;7.35;53.29;99872.91;5009459;28;20120;-67
2021/11/25 10:52:38;;;;;;;17.38;2.47;;;;;;;7.13;53.15;99876.78;4990999;28;20484;-67
2021/11/25 10:55:14;;;;;;;12.50;2.45;;;;;;;7.25;53.47;99876.06;4989262;28;20054;-68
2021/11/25 10:57:52;;;;;;;10.73;2.72;;;;;;;7.35;53.05;99873.72;5010464;28;20053;-68
2021/11/25 11:00:24;;;;;;;18.25;3.20;;;;;;;7.45;52.62;99870.53;4993288;28;20034;-68
2021/11/25 11:03:05;;;;;;;15.35;4.07;;;;;;;6.75;53.49;99861.53;5008950;28;20056;-68
2021/11/25 11:05:55;;;;;;;20.75;5.53;;;;;;;6.78;53.70;99860.28;4987622;28;20137;-67
2021/11/25 11:08:21;;;;;;;23.77;5.20;;;;;;;7.24;53.02;99861.84;5004037;28;20034;-67
2021/11/25 11:11:06;;;;;;;21.42;6.35;;;;;;;7.34;52.78;99853.34;4985986;28;20133;-68
2021/11/25 11:14:13;;;;;;;33.25;7.00;;;;;;;7.32;52.96;99853.53;5010894;28;20399;-68
2021/11/25 11:16:30;;;;;;;20.25;6.82;;;;;;;7.39;52.49;99864.22;4998030;28;20057;-68
2021/11/25 11:19:01;;;;;;;22.20;6.90;;;;;;;7.54;52.01;99861.19;5004764;28;20044;-67
2021/11/25 11:21:38;;;;;;;21.77;7.65;;;;;;;7.38;52.12;99848.34;4991007;28;20077;-68
2021/11/25 11:24:21;;;;;;;22.00;7.78;;;;;;;7.33;52.75;99849.81;4990192;28;20438;-68
2021/11/25 11:26:50;;;;;;;25.05;7.25;;;;;;;7.49;52.62;99849.50;5009494;28;20030;-68
2021/11/25 11:29:25;;;;;;;21.67;6.28;;;;;;;7.29;52.34;99843.25;4972313;28;20038;-68
2021/11/25 11:31:52;;;;;;;21.17;5.68;;;;;;;7.58;51.88;99843.63;5006219;28;20034;-67
2021/11/25 11:34:19;;;;;;;17.58;4.78;;;;;;;7.39;52.07;99844.63;4997679;28;20066;-67
2021/11/25 11:36:48;;;;;;;16.05;4.32;;;;;;;7.42;51.71;99862.94;4998811;28;20045;-68
2021/11/25 11:39:16;;;;;;;14.00;4.65;;;;;;;7.16;51.94;99846.03;5000365;28;20073;-67
2021/11/25 11:41:45;;;;;;;17.75;5.00;;;;;;;7.54;51.80;99855.81;4989668;28;20057;-67
2021/11/25 11:44:10;;;;;;;26.45;6.07;;;;;;;7.53;51.51;99864.91;5004674;28;20061;-67
2021/11/25 11:46:37;;;;;;;15.02;4.10;;;;;;;7.64;50.29;99857.19;4988588;28;20034;-67